Time;durP1;ratioP1;P1;durP2;ratioP2;P2;SDS_P1;SDS_P2;PMS_P1;PMS_P2;Temp;Humidity;BMP_temperature;BMP_pressure;BME280_temperature;BME280_humidity;BME280_pressure;Samples;Min_cycle;Max_cycle;Signal;HPM_P1;HPM_P2
2021/11/11 00:00:39;;;;;;;11.67;8.90;;;;;;;1.29;88.17;101953.09;1398389;94;21498;-92
2021/11/11 00:03:06;;;;;;;12.10;8.50;;;;;;;1.30;88.12;101944.38;1388651;94;21574;-92
2021/11/11 00:05:34;;;;;;;11.07;9.70;;;;;;;1.32;87.90;101947.80;1385664;94;21421;-94
2021/11/11 00:08:01;;;;;;;14.23;9.83;;;;;;;1.33;87.55;101942.97;1394100;94;21865;-94
2021/11/11 00:10:29;;;;;;;10.87;8.73;;;;;;;1.33;87.51;101940.36;1376130;94;21630;-92
2021/11/11 00:12:59;;;;;;;11.57;9.47;;;;;;;1.28;87.09;101940.11;1388203;94;21569;-94
2021/11/11 00:15:27;;;;;;;11.73;9.33;;;;;;;1.26;87.17;101943.22;1383072;94;21774;-93
2021/11/11 00:17:56;;;;;;;10.50;8.37;;;;;;;1.25;87.12;101941.52;1357690;94;21807;-94
2021/11/11 00:20:26;;;;;;;10.87;7.90;;;;;;;1.22;86.85;101938.56;1389372;94;21825;-94
2021/11/11 00:22:55;;;;;;;15.05;10.45;;;;;;;1.24;86.77;101938.52;1387537;94;21653;-92
2021/11/11 00:25:25;;;;;;;11.47;9.10;;;;;;;1.18;86.62;101931.75;1394161;94;21480;-92
2021/11/11 00:27:52;;;;;;;10.07;8.67;;;;;;;1.17;86.38;101933.09;1386122;94;21639;-95
2021/11/11 00:30:21;;;;;;;16.40;10.00;;;;;;;1.16;86.23;101939.22;1380521;94;21702;-94
2021/11/11 00:32:50;;;;;;;10.20;8.43;;;;;;;1.09;86.09;101929.00;1383788;94;21712;-95
2021/11/11 00:35:21;;;;;;;7.87;7.07;;;;;;;1.05;85.97;101936.50;1373970;94;21766;-95
2021/11/11 00:37:50;;;;;;;13.53;7.93;;;;;;;0.95;86.04;101932.92;1365129;94;21542;-90
2021/11/11 00:40:18;;;;;;;7.10;6.40;;;;;;;0.86;85.75;101932.34;1390741;94;21675;-91
2021/11/11 00:42:48;;;;;;;6.70;5.13;;;;;;;0.82;85.71;101925.95;1403471;94;22757;-90
2021/11/11 00:45:16;;;;;;;7.20;5.87;;;;;;;0.76;85.32;101927.45;1395509;94;21714;-92
2021/11/11 00:47:46;;;;;;;10.67;6.73;;;;;;;0.70;85.35;101927.20;1397560;94;21689;-93
2021/11/11 00:50:13;;;;;;;8.10;6.63;;;;;;;0.65;85.83;101931.23;1392618;94;21704;-92
2021/11/11 00:52:55;;;;;;;8.03;7.03;;;;;;;0.64;85.74;101920.42;1394967;93;21630;-95
2021/11/11 00:55:24;;;;;;;8.83;6.00;;;;;;;0.65;86.51;101922.57;1403357;93;21943;-93
2021/11/11 00:57:53;;;;;;;7.57;5.80;;;;;;;0.65;86.51;101912.15;1392053;93;21595;-94
2021/11/11 01:00:26;;;;;;;;;;;;;;;0.64;86.43;101906.09;1395308;94;22691;-94
2021/11/11 01:03:02;;;;;;;7.40;6.55;;;;;;;0.65;86.36;101903.03;1390324;94;20285;-94
2021/11/11 01:05:35;;;;;;;10.37;8.27;;;;;;;0.59;86.00;101904.07;1398709;93;21464;-95
2021/11/11 01:08:13;;;;;;;9.27;7.30;;;;;;;0.60;86.25;101902.31;1387893;92;21860;-96
2021/11/11 01:10:43;;;;;;;8.40;6.73;;;;;;;0.61;86.29;101902.73;1392537;94;21860;-94
2021/11/11 01:13:32;;;;;;;7.77;5.90;;;;;;;0.57;86.16;101901.11;1392680;91;21757;-96
2021/11/11 01:15:53;;;;;;;7.90;6.50;;;;;;;0.56;86.26;101898.95;1391452;94;21671;-94
2021/11/11 01:18:31;;;;;;;9.93;6.60;;;;;;;0.57;86.41;101897.20;1403738;87;21800;-96
2021/11/11 01:21:05;;;;;;;8.23;6.43;;;;;;;0.60;86.77;101895.80;1429974;91;21561;-96
2021/11/11 01:23:54;;;;;;;12.70;7.30;;;;;;;0.61;86.63;101897.52;1431668;91;22724;-89
2021/11/11 01:26:36;;;;;;;9.73;7.20;;;;;;;0.58;86.46;101893.72;1425352;91;21752;-93
2021/11/11 01:29:11;;;;;;;9.87;7.47;;;;;;;0.58;86.13;101887.20;1427314;91;21615;-94
2021/11/11 01:31:51;;;;;;;8.87;6.90;;;;;;;0.56;86.63;101873.36;1413905;92;21896;-93
2021/11/11 01:34:28;;;;;;;16.97;7.45;;;;;;;0.57;86.47;101871.14;1437423;91;21657;-94
2021/11/11 01:36:58;;;;;;;12.43;8.03;;;;;;;0.59;86.12;101870.66;1434163;91;21551;-95
2021/11/11 01:39:33;;;;;;;16.80;8.07;;;;;;;0.57;85.73;101871.14;1435079;91;21673;-95
2021/11/11 01:42:03;;;;;;;12.07;6.77;;;;;;;0.56;85.97;101878.56;1423679;91;23883;-95
2021/11/11 01:44:37;;;;;;;14.90;7.50;;;;;;;0.51;85.74;101870.04;1432602;91;21636;-94
2021/11/11 01:47:10;;;;;;;8.17;6.47;;;;;;;0.44;86.04;101868.93;1430974;91;21698;-93
2021/11/11 01:49:44;;;;;;;15.33;6.87;;;;;;;0.42;85.74;101872.02;1411776;91;21657;-94
2021/11/11 01:52:19;;;;;;;10.57;7.83;;;;;;;0.39;85.28;101872.12;1432572;91;21716;-94
2021/11/11 01:54:51;;;;;;;13.63;7.80;;;;;;;0.31;85.07;101870.65;1430696;91;21727;-94
2021/11/11 01:57:37;;;;;;;15.33;8.67;;;;;;;0.26;84.99;101877.74;1434285;91;21554;-92
2021/11/11 02:00:22;;;;;;;10.87;7.37;;;;;;;0.26;85.67;101883.83;1432116;91;22486;-94
2021/11/11 02:03:05;;;;;;;11.97;7.87;;;;;;;0.24;85.88;101879.11;1428040;91;22719;-94
2021/11/11 02:05:43;;;;;;;10.73;7.63;;;;;;;0.15;85.88;101870.27;1431372;91;21696;-93
2021/11/11 02:08:24;;;;;;;8.43;6.50;;;;;;;0.11;86.41;101867.34;1437446;91;21786;-92
2021/11/11 02:10:59;;;;;;;8.90;6.20;;;;;;;0.13;86.94;101872.06;1434267;91;21638;-94
2021/11/11 02:13:33;;;;;;;9.67;7.43;;;;;;;0.19;86.50;101875.33;1428695;91;21629;-94
2021/11/11 02:16:05;;;;;;;8.30;6.80;;;;;;;0.22;86.36;101875.69;1394724;89;21671;-94
2021/11/11 02:18:39;;;;;;;12.60;6.77;;;;;;;0.22;86.58;101885.65;1417149;90;21678;-94
2021/11/11 02:21:14;;;;;;;9.27;7.20;;;;;;;0.24;86.50;101877.80;1436585;90;21640;-93
2021/11/11 02:23:50;;;;;;;8.57;6.90;;;;;;;0.30;86.71;101880.67;1437646;90;21652;-94
2021/11/11 02:26:22;;;;;;;12.87;9.37;;;;;;;0.35;86.94;101880.94;1439215;90;21578;-94
2021/11/11 02:29:00;;;;;;;;;;;;;;;0.34;87.73;101876.61;1438947;90;22565;-93
2021/11/11 02:31:36;;;;;;;12.13;9.07;;;;;;;0.37;87.11;101868.70;1441116;90;20290;-94
2021/11/11 02:34:08;;;;;;;16.33;9.93;;;;;;;0.39;86.98;101868.21;1440978;90;21895;-94
2021/11/11 02:37:05;;;;;;;11.20;8.60;;;;;;;0.42;86.85;101866.81;1410225;90;22597;-91
2021/11/11 02:46:28;;;;;;;13.20;8.87;;;;;;;0.46;86.16;101864.95;1372721;93;21869;-91
2021/11/11 02:49:10;;;;;;;12.63;8.43;;;;;;;0.39;86.56;101869.52;1399083;93;21720;-93
2021/11/11 02:51:44;;;;;;;13.53;8.93;;;;;;;0.36;87.13;101864.41;1399042;93;22555;-93
2021/11/11 02:54:19;;;;;;;10.90;8.33;;;;;;;0.40;87.31;101856.91;1399001;93;23004;-91
2021/11/11 02:57:01;;;;;;;14.00;8.53;;;;;;;0.44;87.02;101857.21;1399444;93;21547;-92
2021/11/11 02:59:35;;;;;;;16.27;9.10;;;;;;;0.48;86.72;101864.92;1402254;93;22719;-94
2021/11/11 03:02:05;;;;;;;13.23;9.47;;;;;;;0.49;86.63;101859.69;1402125;92;21691;-95
2021/11/11 03:04:41;;;;;;;11.83;8.33;;;;;;;0.50;86.38;101856.16;1406560;93;21628;-94
2021/11/11 03:07:27;;;;;;;9.48;7.65;;;;;;;0.52;86.62;101850.89;1402992;92;21547;-95
2021/11/11 03:10:19;;;;;;;11.83;7.80;;;;;;;0.52;86.58;101860.01;1393653;92;22647;-94
2021/11/11 03:12:50;;;;;;;11.20;9.67;;;;;;;0.49;86.70;101857.08;1425294;90;21778;-93
2021/11/11 03:15:22;;;;;;;12.67;10.07;;;;;;;0.48;87.04;101850.59;1435703;90;21647;-93
2021/11/11 03:17:56;;;;;;;10.67;7.77;;;;;;;0.52;87.08;101852.19;1441442;90;21570;-94
2021/11/11 03:20:28;;;;;;;9.20;7.90;;;;;;;0.55;87.18;101853.42;1431815;89;21683;-94
2021/11/11 03:23:08;;;;;;;10.18;7.90;;;;;;;0.59;87.37;101844.14;1420071;91;21849;-96
2021/11/11 03:25:44;;;;;;;10.57;8.63;;;;;;;0.53;86.64;101852.61;1422564;91;21448;-96
2021/11/11 03:28:26;;;;;;;9.90;7.93;;;;;;;0.43;86.16;101849.00;1383257;94;21749;-94
2021/11/11 03:30:58;;;;;;;;;;;;;;;0.35;86.32;101845.78;1446592;89;22825;-96
2021/11/11 03:33:30;;;;;;;10.13;7.67;;;;;;;0.32;86.15;101843.27;1422267;91;20387;-93
2021/11/11 03:36:07;;;;;;;9.83;7.33;;;;;;;0.28;86.97;101837.73;1426071;89;21829;-93
2021/11/11 03:38:47;;;;;;;10.57;6.90;;;;;;;0.28;87.09;101840.34;1437148;91;22756;-94
2021/11/11 03:41:24;;;;;;;13.33;9.83;;;;;;;0.30;87.24;101838.55;1435092;91;21821;-94
2021/11/11 03:44:02;;;;;;;16.37;7.93;;;;;;;0.34;87.42;101832.33;1432672;91;21659;-93
2021/11/11 03:46:45;;;;;;;;;;;;;;;;;;;;;
2021/11/11 03:49:14;;;;;;;9.63;6.90;;;;;;;0.31;85.91;101834.19;1433267;89;21526;-92
2021/11/11 03:51:54;;;;;;;10.00;7.40;;;;;;;0.17;85.81;101826.80;1427803;89;21646;-92
2021/11/11 03:54:31;;;;;;;9.37;7.33;;;;;;;0.12;86.06;101824.80;1431748;91;24024;-96
2021/11/11 03:57:04;;;;;;;9.33;8.20;;;;;;;0.06;86.57;101823.66;1440443;91;22629;-92
2021/11/11 03:59:40;;;;;;;8.70;6.80;;;;;;;0.05;86.81;101819.36;1441712;91;21815;-91
2021/11/11 04:02:24;;;;;;;8.03;6.50;;;;;;;-0.09;86.69;101814.56;1433781;91;21746;-93
2021/11/11 04:05:00;;;;;;;8.67;6.93;;;;;;;-0.21;87.21;101810.58;1439117;91;21519;-94
2021/11/11 04:07:31;;;;;;;9.60;7.30;;;;;;;-0.20;87.14;101801.02;1436157;91;23911;-91
2021/11/11 04:10:14;;;;;;;9.50;7.10;;;;;;;-0.15;87.77;101805.19;1410023;91;22328;-92
2021/11/11 04:12:47;;;;;;;9.67;7.80;;;;;;;-0.09;87.94;101806.30;1433428;89;21710;-92
2021/11/11 04:15:30;;;;;;;12.25;6.72;;;;;;;-0.03;87.92;101803.55;1439518;90;21696;-90
2021/11/11 04:18:07;;;;;;;8.87;6.73;;;;;;;-0.02;87.72;101805.23;1435816;91;21414;-90
2021/11/11 04:20:39;;;;;;;8.23;6.17;;;;;;;0.02;87.69;101803.84;1434224;89;22751;-91
2021/11/11 04:23:17;;;;;;;5.97;5.23;;;;;;;-0.01;87.06;101799.13;1423956;89;21748;-93
2021/11/11 04:28:38;;;;;;;8.63;6.40;;;;;;;-0.31;86.75;101797.45;1444982;90;22229;-91
2021/11/11 04:34:06;;;;;;;9.23;7.20;;;;;;;-0.40;87.37;101800.28;1347615;95;23238;-94
2021/11/11 05:00:59;;;;;;;16.03;9.43;;;;;;;-0.26;88.55;101799.44;1470170;88;22169;-90
2021/11/11 05:03:21;;;;;;;14.37;9.33;;;;;;;-0.22;88.27;101798.47;1460678;89;22135;-90
2021/11/11 05:05:43;;;;;;;13.23;9.23;;;;;;;-0.18;88.34;101792.72;1460855;89;21667;-89
2021/11/11 05:08:10;;;;;;;15.28;9.13;;;;;;;-0.17;88.49;101794.41;1464904;89;21599;-89
2021/11/11 05:10:38;;;;;;;17.00;10.40;;;;;;;-0.26;87.51;101795.53;1468083;88;21375;-91
2021/11/11 05:13:05;;;;;;;17.40;9.30;;;;;;;-0.32;87.02;101792.66;1465531;89;21571;-92
2021/11/11 05:15:32;;;;;;;12.33;8.47;;;;;;;-0.35;87.84;101790.61;1461461;89;21750;-90
2021/11/11 05:18:00;;;;;;;10.53;8.30;;;;;;;-0.34;87.66;101789.73;1458876;89;21970;-90
2021/11/11 05:20:28;;;;;;;10.97;8.17;;;;;;;-0.37;87.96;101792.42;1467875;89;22612;-89
2021/11/11 05:22:55;;;;;;;11.43;7.60;;;;;;;-0.37;87.70;101800.23;1459284;88;21721;-92
2021/11/11 05:25:22;;;;;;;10.10;7.20;;;;;;;-0.41;87.87;101802.05;1461139;89;21607;-91
2021/11/11 05:27:50;;;;;;;10.70;8.47;;;;;;;-0.45;88.27;101809.54;1463106;89;23750;-91
2021/11/11 05:30:19;;;;;;;8.77;6.40;;;;;;;-0.41;89.00;101811.59;1465609;89;22199;-93
2021/11/11 05:32:48;;;;;;;12.37;7.67;;;;;;;-0.36;88.78;101813.17;1470388;88;22115;-92
2021/11/11 05:35:16;;;;;;;9.50;7.60;;;;;;;-0.43;87.86;101807.76;1439473;89;21830;-91
2021/11/11 05:37:44;;;;;;;10.17;8.17;;;;;;;-0.43;88.35;101815.98;1453007;89;21833;-93
2021/11/11 05:40:14;;;;;;;9.13;7.33;;;;;;;-0.39;88.34;101811.12;1466471;89;21732;-92
2021/11/11 05:42:42;;;;;;;9.68;7.22;;;;;;;-0.40;88.43;101815.89;1455726;89;22381;-94
2021/11/11 05:45:10;;;;;;;8.37;7.00;;;;;;;-0.34;88.52;101818.34;1459876;89;21524;-94
2021/11/11 05:47:38;;;;;;;10.03;7.37;;;;;;;-0.31;88.30;101818.27;1459880;88;21566;-92
2021/11/11 05:50:07;;;;;;;9.10;6.93;;;;;;;-0.32;88.18;101817.83;1463308;88;21599;-91
2021/11/11 05:52:34;;;;;;;8.70;7.00;;;;;;;-0.28;88.16;101827.27;1465615;88;21666;-94
2021/11/11 05:55:04;;;;;;;6.97;6.23;;;;;;;-0.26;88.29;101830.66;1466167;89;21744;-92
2021/11/11 05:57:32;;;;;;;9.58;8.03;;;;;;;-0.19;88.64;101835.27;1469921;89;22892;-92
2021/11/11 06:00:00;;;;;;;8.10;7.07;;;;;;;-0.10;88.68;101837.59;1465382;89;22307;-91
2021/11/11 06:02:27;;;;;;;10.23;7.47;;;;;;;-0.05;88.28;101840.47;1461851;88;22412;-92
2021/11/11 06:04:54;;;;;;;7.37;6.10;;;;;;;-0.02;88.43;101836.47;1459137;89;21624;-93
2021/11/11 06:07:21;;;;;;;10.33;7.70;;;;;;;0.04;88.07;101827.63;1478440;88;21679;-93
2021/11/11 06:09:48;;;;;;;11.83;9.30;;;;;;;0.09;87.77;101839.22;1462188;88;21741;-92
2021/11/11 06:12:15;;;;;;;10.37;8.23;;;;;;;0.11;87.55;101840.00;1466240;89;21542;-94
2021/11/11 06:14:42;;;;;;;10.57;8.07;;;;;;;0.14;87.53;101836.00;1468457;89;21686;-95
2021/11/11 06:17:10;;;;;;;7.27;6.13;;;;;;;0.15;86.83;101836.42;1466008;89;21524;-94
2021/11/11 06:19:38;;;;;;;16.53;11.20;;;;;;;0.13;86.29;101836.91;1476071;89;21530;-94
2021/11/11 06:22:05;;;;;;;134.27;61.93;;;;;;;0.11;86.28;101830.44;1454130;88;22390;-92
2021/11/11 06:24:33;;;;;;;19.33;11.00;;;;;;;0.15;86.54;101820.80;1467992;88;21703;-92
2021/11/11 06:27:01;;;;;;;56.87;20.30;;;;;;;0.15;86.37;101820.80;1444459;88;22616;-93
2021/11/11 06:29:28;;;;;;;19.77;9.90;;;;;;;0.13;86.25;101818.23;1465190;88;22574;-91
2021/11/11 06:31:55;;;;;;;15.77;10.13;;;;;;;0.13;86.36;101817.39;1451877;88;22552;-90
2021/11/11 06:34:22;;;;;;;50.53;21.77;;;;;;;0.16;86.37;101814.23;1464108;88;21490;-91
2021/11/11 06:36:50;;;;;;;45.10;17.87;;;;;;;0.14;86.31;101811.27;1470703;88;21604;-91
2021/11/11 06:39:17;;;;;;;25.73;12.73;;;;;;;0.14;86.33;101809.97;1470437;88;21555;-91
2021/11/11 06:41:44;;;;;;;16.27;9.63;;;;;;;0.15;86.08;101818.20;1468997;88;21524;-91
2021/11/11 06:44:18;;;;;;;12.53;8.97;;;;;;;0.16;86.33;101815.53;1461431;88;21607;-90
2021/11/11 06:46:41;;;;;;;14.30;8.93;;;;;;;0.23;86.32;101810.98;1467890;88;21750;-91
2021/11/11 06:49:07;;;;;;;32.13;12.17;;;;;;;0.31;86.44;101812.05;1471996;88;22515;-89
2021/11/11 06:51:34;;;;;;;14.63;8.37;;;;;;;0.35;85.78;101816.28;1468777;88;22583;-89
2021/11/11 06:54:02;;;;;;;10.57;7.37;;;;;;;0.37;85.51;101817.91;1469022;88;21619;-89
2021/11/11 06:56:29;;;;;;;11.27;7.37;;;;;;;0.37;85.13;101811.86;1472291;88;21630;-89
2021/11/11 06:58:56;;;;;;;8.57;7.00;;;;;;;0.36;84.86;101816.22;1467549;88;21614;-89
2021/11/11 07:01:23;;;;;;;8.87;7.10;;;;;;;0.40;84.73;101811.33;1447419;88;21644;-90
2021/11/11 07:03:50;;;;;;;10.47;7.10;;;;;;;0.42;84.33;101813.41;1474453;88;21672;-90
2021/11/11 07:06:17;;;;;;;12.57;7.37;;;;;;;0.41;84.32;101813.02;1469759;88;21661;-90
2021/11/11 07:08:44;;;;;;;134.07;41.10;;;;;;;0.44;84.62;101815.53;1465122;88;21744;-90
2021/11/11 07:11:11;;;;;;;24.27;13.00;;;;;;;0.43;84.98;101812.96;1472585;88;21604;-90
2021/11/11 07:13:38;;;;;;;10.03;7.23;;;;;;;0.43;85.07;101812.53;1464772;88;22070;-90
2021/11/11 07:16:06;;;;;;;9.47;7.10;;;;;;;0.53;84.93;101822.20;1467454;88;21744;-88
2021/11/11 07:18:33;;;;;;;10.10;7.43;;;;;;;0.56;84.44;101822.55;1472237;88;21606;-88
2021/11/11 07:21:00;;;;;;;14.17;9.23;;;;;;;0.61;84.43;101830.63;1475427;87;21539;-87
2021/11/11 07:23:28;;;;;;;13.27;9.90;;;;;;;0.68;84.24;101828.66;1467871;88;21636;-89
2021/11/11 07:25:56;;;;;;;16.87;9.23;;;;;;;0.68;83.49;101820.84;1449082;89;21781;-89
2021/11/11 07:28:23;;;;;;;15.13;9.27;;;;;;;0.68;83.23;101827.36;1465624;89;22559;-89
2021/11/11 07:30:51;;;;;;;11.03;8.83;;;;;;;0.70;83.70;101828.62;1430665;89;21635;-90
2021/11/11 07:33:18;;;;;;;16.57;10.37;;;;;;;0.67;82.36;101828.27;1470676;88;21777;-89
2021/11/11 07:35:46;;;;;;;13.03;8.37;;;;;;;0.64;82.92;101827.92;1443816;89;21736;-89
2021/11/11 07:38:16;;;;;;;14.33;9.93;;;;;;;0.65;83.51;101833.52;1452491;89;22909;-89
2021/11/11 07:40:43;;;;;;;11.07;9.00;;;;;;;0.71;83.46;101831.62;1460745;89;21600;-90
2021/11/11 07:43:11;;;;;;;13.30;8.17;;;;;;;0.79;83.49;101819.20;1459065;89;21666;-88
2021/11/11 07:45:39;;;;;;;12.33;9.63;;;;;;;0.88;83.85;101826.25;1461203;89;21701;-89
2021/11/11 07:48:07;;;;;;;11.73;9.03;;;;;;;1.01;83.69;101821.95;1456493;89;21498;-90
2021/11/11 07:50:38;;;;;;;11.87;8.40;;;;;;;1.06;83.25;101813.49;1456000;89;21754;-89
2021/11/11 07:53:09;;;;;;;11.23;9.00;;;;;;;1.12;83.14;101807.63;1466833;89;21498;-90
2021/11/11 07:55:38;;;;;;;12.10;8.70;;;;;;;1.19;83.09;101799.14;1460134;89;21767;-89
2021/11/11 07:58:07;;;;;;;15.27;11.70;;;;;;;1.24;82.96;101805.05;1455257;89;22505;-89
2021/11/11 08:00:34;;;;;;;11.03;8.30;;;;;;;1.33;83.24;101795.58;1461182;89;21454;-89
2021/11/11 08:03:02;;;;;;;11.13;7.53;;;;;;;1.39;82.92;101794.52;1460398;89;21481;-89
2021/11/11 08:05:29;;;;;;;9.67;7.23;;;;;;;1.46;82.73;101795.98;1461549;89;21662;-90
2021/11/11 08:07:56;;;;;;;9.70;8.00;;;;;;;1.53;82.46;101796.63;1463729;89;21622;-89
2021/11/11 08:10:24;;;;;;;12.00;8.20;;;;;;;1.57;82.07;101800.81;1478046;89;21619;-90
2021/11/11 08:12:51;;;;;;;12.27;9.17;;;;;;;1.67;82.43;101791.75;1454838;89;22552;-90
2021/11/11 08:15:20;;;;;;;39.37;13.47;;;;;;;1.77;82.37;101794.86;1455669;89;21737;-88
2021/11/11 08:17:49;;;;;;;13.13;10.13;;;;;;;1.82;81.76;101787.71;1462208;89;21626;-89
2021/11/11 08:20:17;;;;;;;14.73;10.53;;;;;;;1.89;81.91;101786.55;1436668;90;21686;-89
2021/11/11 08:22:48;;;;;;;12.13;8.30;;;;;;;1.92;80.83;101788.20;1443051;89;21721;-88
2021/11/11 08:25:18;;;;;;;14.73;10.35;;;;;;;1.98;81.59;101793.18;1440660;89;21843;-89
2021/11/11 08:27:49;;;;;;;14.47;9.90;;;;;;;2.06;81.27;101795.05;1449897;89;21442;-89
2021/11/11 08:30:18;;;;;;;14.58;10.05;;;;;;;2.15;81.58;101792.06;1446327;89;21420;-90
2021/11/11 08:32:50;;;;;;;15.83;11.27;;;;;;;2.40;80.82;101788.50;1442971;89;21934;-89
2021/11/11 08:35:18;;;;;;;16.40;11.50;;;;;;;2.36;80.04;101786.47;1456492;88;21874;-89
2021/11/11 08:37:46;;;;;;;18.90;14.03;;;;;;;2.36;80.04;101786.47;1460918;89;22832;-89
2021/11/11 08:40:15;;;;;;;20.73;15.33;;;;;;;2.53;81.17;101796.67;1457661;89;22155;-89
2021/11/11 08:42:49;;;;;;;19.77;13.63;;;;;;;2.53;81.17;101783.27;1401405;89;22449;-88
2021/11/11 08:45:16;;;;;;;23.77;15.13;;;;;;;2.50;80.81;101783.27;1395697;94;22174;-88
2021/11/11 08:47:45;;;;;;;22.43;15.77;;;;;;;2.61;80.96;101782.13;1452831;88;22343;-88
2021/11/11 08:50:14;;;;;;;24.40;16.50;;;;;;;2.67;81.19;101782.13;1411708;92;22092;-88
2021/11/11 08:52:49;;;;;;;26.77;17.83;;;;;;;2.47;79.99;101779.48;1452136;89;22093;-89
2021/11/11 08:55:19;;;;;;;22.93;14.93;;;;;;;2.47;79.99;101779.48;1458230;89;23113;-88
2021/11/11 08:57:46;;;;;;;28.75;17.12;;;;;;;2.59;80.71;101791.19;1450413;89;22106;-89
2021/11/11 09:00:19;;;;;;;27.07;19.50;;;;;;;2.68;81.46;101783.84;1463447;89;21362;-89
2021/11/11 09:02:50;;;;;;;49.83;29.37;;;;;;;2.78;82.01;101776.45;1402760;92;22166;-93
2021/11/11 09:05:19;;;;;;;38.38;24.18;;;;;;;2.81;81.85;101778.09;1457921;89;22162;-89
2021/11/11 09:07:55;;;;;;;34.17;22.77;;;;;;;2.89;81.32;101783.85;1463053;89;21368;-88
2021/11/11 09:10:24;;;;;;;28.50;20.00;;;;;;;3.00;81.63;101784.25;1447852;89;22201;-88
2021/11/11 09:13:02;;;;;;;36.97;22.93;;;;;;;3.18;81.83;101781.75;1438474;89;22169;-88
2021/11/11 09:15:33;;;;;;;34.07;21.83;;;;;;;3.31;81.98;101771.99;1410318;92;23199;-88
2021/11/11 09:18:04;;;;;;;34.50;23.05;;;;;;;3.38;81.88;101773.88;1468612;89;22248;-89
2021/11/11 09:20:32;;;;;;;31.52;22.07;;;;;;;3.53;81.67;101773.17;1443540;89;21535;-89
2021/11/11 09:23:01;;;;;;;35.37;22.63;;;;;;;3.72;82.16;101771.04;1459221;89;22021;-90
2021/11/11 09:25:31;;;;;;;24.83;16.60;;;;;;;3.90;81.92;101771.48;1460091;89;22180;-89
2021/11/11 09:28:01;;;;;;;22.40;15.10;;;;;;;4.11;81.28;101768.77;1473564;89;22225;-89
2021/11/11 09:30:50;;;;;;;20.20;14.90;;;;;;;4.20;80.54;101761.77;1465958;89;22477;-89
2021/11/11 09:33:17;;;;;;;22.40;15.10;;;;;;;4.27;79.87;101764.50;1469595;89;21441;-90
2021/11/11 09:35:50;;;;;;;25.03;15.50;;;;;;;4.34;79.69;101757.17;1458648;89;21406;-88
2021/11/11 09:38:17;;;;;;;22.10;16.03;;;;;;;4.36;79.51;101750.94;1453541;88;21345;-88
2021/11/11 09:40:44;;;;;;;24.40;15.77;;;;;;;4.40;79.07;101751.63;1439776;89;21499;-89
2021/11/11 09:43:11;;;;;;;22.60;15.73;;;;;;;4.51;79.44;101747.55;1439295;90;21539;-88
2021/11/11 09:45:38;;;;;;;23.33;17.03;;;;;;;4.67;79.57;101748.11;1438479;90;21600;-88
2021/11/11 09:48:05;;;;;;;28.37;18.70;;;;;;;4.74;79.30;101743.77;1444068;90;21621;-88
2021/11/11 09:50:35;;;;;;;31.30;18.23;;;;;;;4.84;79.18;101732.83;1409340;90;22330;-87
2021/11/11 09:53:08;;;;;;;23.97;18.07;;;;;;;4.97;79.20;101736.03;1445850;90;22427;-90
2021/11/11 09:58:34;;;;;;;27.63;17.97;;;;;;;5.11;78.41;101726.61;1441590;90;21512;-89
2021/11/11 10:01:05;;;;;;;24.73;18.40;;;;;;;5.12;78.55;101721.73;1455479;88;21345;-87
2021/11/11 10:03:33;;;;;;;27.52;18.75;;;;;;;5.12;78.68;101729.60;1461440;89;22433;-83
2021/11/11 10:06:00;;;;;;;28.80;20.23;;;;;;;4.92;78.82;101734.14;1458964;89;22246;-88
2021/11/11 10:08:42;;;;;;;38.10;22.80;;;;;;;4.90;79.40;101733.36;1439723;90;21492;-89
2021/11/11 10:11:15;;;;;;;30.77;21.73;;;;;;;4.90;79.57;101728.11;1507851;91;21229;-85
2021/11/11 10:13:42;;;;;;;32.00;20.50;;;;;;;5.03;79.98;101724.84;1530481;89;21479;-86
2021/11/11 10:16:14;;;;;;;34.77;22.43;;;;;;;5.17;80.51;101722.34;1428433;89;22410;-86
2021/11/11 10:18:51;;;;;;;32.07;21.33;;;;;;;5.31;80.09;101713.27;1456878;88;21515;-85
2021/11/11 10:24:49;;;;;;;33.03;21.17;;;;;;;5.58;79.46;101699.13;1421900;89;21494;-85
2021/11/11 10:27:36;;;;;;;33.60;21.27;;;;;;;5.76;79.69;101700.35;1458425;89;22020;-82
2021/11/11 10:30:06;;;;;;;32.70;23.10;;;;;;;5.83;79.07;101692.48;1455463;88;22395;-82
2021/11/11 10:32:45;;;;;;;32.40;21.83;;;;;;;5.83;78.55;101688.08;1468700;88;21493;-82
2021/11/11 10:35:22;;;;;;;29.97;21.30;;;;;;;5.81;78.32;101683.84;1473444;88;21642;-81
2021/11/11 10:38:09;;;;;;;35.97;23.13;;;;;;;5.76;78.26;101678.02;1477166;88;21412;-82
2021/11/11 10:40:41;;;;;;;50.37;31.77;;;;;;;5.85;78.70;101678.34;1456959;88;22422;-81
2021/11/11 10:43:13;;;;;;;33.10;22.63;;;;;;;5.87;78.21;101673.02;1466209;88;22300;-85
2021/11/11 10:45:48;;;;;;;39.00;25.13;;;;;;;5.92;78.66;101667.48;1465277;88;22833;-86
2021/11/11 10:48:19;;;;;;;35.17;23.83;;;;;;;5.99;78.76;101664.92;1465013;88;21456;-86
2021/11/11 10:51:12;;;;;;;30.17;21.65;;;;;;;6.08;79.41;101655.20;1444349;88;21397;-86
2021/11/11 10:53:39;;;;;;;29.77;20.20;;;;;;;6.25;79.43;101652.43;1402959;92;21449;-86
2021/11/11 10:56:07;;;;;;;28.97;18.53;;;;;;;6.59;79.07;101645.18;1460129;89;21449;-86
2021/11/11 10:58:40;;;;;;;23.50;17.73;;;;;;;6.84;78.08;101646.31;1460833;89;21450;-87
2021/11/11 11:01:19;;;;;;;28.93;20.53;;;;;;;7.10;78.27;101642.91;1412446;92;23361;-86
2021/11/11 11:03:47;;;;;;;26.80;19.77;;;;;;;7.19;76.63;101646.31;1465827;89;21472;-87
2021/11/11 11:06:18;;;;;;;72.30;46.73;;;;;;;7.05;75.90;101639.74;1460878;89;22426;-87
2021/11/11 11:08:54;;;;;;;33.23;23.18;;;;;;;7.05;75.90;101639.74;1439738;89;21405;-87
2021/11/11 11:11:32;;;;;;;27.33;19.57;;;;;;;7.10;76.13;101641.59;1410171;92;21875;-86
2021/11/11 11:14:04;;;;;;;29.53;21.07;;;;;;;7.17;76.21;101642.08;1464774;89;22441;-86
2021/11/11 11:16:35;;;;;;;23.90;18.23;;;;;;;7.20;75.95;101637.94;1414173;92;21436;-87
2021/11/11 11:19:12;;;;;;;30.60;24.00;;;;;;;7.41;76.38;101637.04;1462823;89;21353;-85
2021/11/11 11:21:45;;;;;;;32.17;23.50;;;;;;;7.42;75.96;101634.33;1455502;89;21503;-85
2021/11/11 11:24:17;;;;;;;48.90;38.40;;;;;;;7.52;76.41;101625.34;1411760;92;22418;-85
2021/11/11 11:26:55;;;;;;;45.70;32.60;;;;;;;7.92;76.75;101614.84;1443554;87;21807;-84
2021/11/11 11:29:33;;;;;;;24.73;19.63;;;;;;;8.29;75.96;101606.64;1399103;93;21446;-88
2021/11/11 11:34:43;;;;;;;27.13;20.63;;;;;;;8.97;74.53;101601.50;1381724;95;22189;-88
2021/11/11 11:37:15;;;;;;;37.67;28.93;;;;;;;9.63;74.13;101594.59;1374665;95;21539;-85
2021/11/11 11:39:50;;;;;;;43.60;32.83;;;;;;;10.21;69.76;101588.89;1370507;95;21605;-85
2021/11/11 11:42:31;;;;;;;42.77;33.00;;;;;;;10.76;68.01;101579.38;1376420;95;21602;-84
2021/11/11 11:45:04;;;;;;;38.58;30.37;;;;;;;11.40;69.84;101573.87;1376020;95;21459;-84
2021/11/11 11:47:51;;;;;;;26.87;21.90;;;;;;;11.88;67.80;101561.52;1383083;95;21472;-84
2021/11/11 11:50:35;;;;;;;28.20;21.37;;;;;;;12.26;64.96;101554.80;1374225;95;21464;-85
2021/11/11 11:53:07;;;;;;;25.87;19.20;;;;;;;12.41;63.20;101554.31;1377585;95;22581;-85
2021/11/11 11:55:43;;;;;;;20.13;14.53;;;;;;;12.71;63.73;101551.78;1378265;95;21494;-84
2021/11/11 11:58:37;;;;;;;24.50;19.67;;;;;;;13.04;60.72;101545.33;1374581;95;22490;-85
2021/11/11 12:03:42;;;;;;;;;;;;;;;12.82;57.58;101550.36;1374373;95;23490;-84
2021/11/11 12:17:37;;;;;;;20.90;13.80;;;;;;;13.66;55.48;101526.02;1402605;92;22017;-84
2021/11/11 12:40:29;;;;;;;17.48;12.65;;;;;;;14.61;57.47;101502.45;1375839;95;21418;-85
2021/11/11 12:43:01;;;;;;;18.80;12.13;;;;;;;14.88;56.31;101502.96;1369554;94;21458;-85
2021/11/11 12:45:35;;;;;;;16.07;13.25;;;;;;;14.28;52.29;101502.02;1360799;94;22670;-84
2021/11/11 12:48:15;;;;;;;21.82;13.60;;;;;;;13.98;54.38;101501.73;1369678;95;22307;-84
2021/11/11 12:50:59;;;;;;;16.55;12.53;;;;;;;14.38;56.50;101505.96;1372937;95;21396;-84
2021/11/11 12:53:51;;;;;;;14.65;13.15;;;;;;;14.49;54.76;101494.29;1379016;95;22391;-85
2021/11/11 12:56:22;;;;;;;15.72;13.15;;;;;;;14.96;55.92;101487.53;1375276;95;21609;-85
2021/11/11 12:59:03;;;;;;;21.30;14.83;;;;;;;15.15;55.15;101482.07;1371799;95;21410;-85
2021/11/11 13:01:38;;;;;;;17.37;14.30;;;;;;;14.91;53.99;101467.17;1377293;95;21580;-84
2021/11/11 13:04:13;;;;;;;15.18;13.40;;;;;;;14.91;53.99;101467.17;1374178;94;21618;-84
2021/11/11 13:07:02;;;;;;;18.67;13.78;;;;;;;14.78;54.19;101479.02;1375309;94;21611;-85